createdAt,value
2023-02-01T00:00:10.771Z,5.27
2023-02-01T00:02:13.903Z,5.25
2023-02-01T00:04:15.714Z,5.23
2023-02-01T00:06:17.737Z,5.26
2023-02-01T00:08:20.312Z,5.23
2023-02-01T00:10:22.203Z,5.24
2023-02-01T00:12:23.865Z,5.26
2023-02-01T00:14:25.485Z,5.27
2023-02-01T00:16:29.018Z,5.27
2023-02-01T00:18:32.542Z,5.25
2023-02-01T00:20:34.112Z,5.26
2023-02-01T00:22:36.155Z,5.26
2023-02-01T00:24:37.807Z,5.25
2023-02-01T00:26:42.127Z,5.27
2023-02-01T00:28:44.000Z,5.27
2023-02-01T00:30:45.900Z,5.27
2023-02-01T00:32:47.884Z,5.29
2023-02-01T00:34:51.131Z,5.30
2023-02-01T00:36:53.045Z,5.26
2023-02-01T00:38:55.313Z,5.27
2023-02-01T00:41:03.865Z,5.30
2023-02-01T00:43:06.073Z,5.29
2023-02-01T00:45:08.896Z,5.29
2023-02-01T00:47:10.888Z,5.29
2023-02-01T00:49:12.830Z,5.30
2023-02-01T00:51:18.887Z,5.29
2023-02-01T00:53:20.874Z,5.30
2023-02-01T00:55:22.763Z,5.28
2023-02-01T00:57:24.742Z,5.29
2023-02-01T00:59:26.585Z,5.27
2023-02-01T01:01:29.249Z,5.28
2023-02-01T01:03:31.703Z,5.29
2023-02-01T01:05:33.336Z,5.29
2023-02-01T01:07:36.477Z,5.30
2023-02-01T01:09:38.237Z,5.30
2023-02-01T01:11:40.467Z,5.28
2023-02-01T01:13:42.412Z,5.29
2023-02-01T01:15:44.366Z,5.31
2023-02-01T01:17:46.443Z,5.30
2023-02-01T01:19:48.680Z,5.31
2023-02-01T01:21:51.791Z,5.31
2023-02-01T01:23:55.043Z,5.29
2023-02-01T01:25:56.852Z,5.34
2023-02-01T01:27:58.865Z,5.33
2023-02-01T01:30:00.853Z,5.32
2023-02-01T01:32:04.268Z,5.31
2023-02-01T01:34:05.904Z,5.33
2023-02-01T01:36:08.648Z,5.34
2023-02-01T01:38:11.431Z,5.34
2023-02-01T01:40:15.148Z,5.35
2023-02-01T01:42:17.184Z,5.33
2023-02-01T01:44:53.529Z,5.37
2023-02-01T01:46:55.846Z,5.37
2023-02-01T01:49:04.876Z,5.36
2023-02-01T01:51:11.402Z,5.38
2023-02-01T01:53:17.523Z,5.39
2023-02-01T01:55:25.830Z,5.40
2023-02-01T01:57:34.707Z,5.41
2023-02-01T01:59:38.238Z,5.40
2023-02-01T02:01:40.120Z,5.39
2023-02-01T02:03:44.099Z,5.42
2023-02-01T02:05:47.243Z,5.40
2023-02-01T02:07:54.334Z,5.40
2023-02-01T02:10:00.969Z,5.39
2023-02-01T02:12:05.541Z,5.39
2023-02-01T02:14:10.124Z,5.40
2023-02-01T02:16:28.987Z,5.40
2023-02-01T02:18:40.601Z,5.43
2023-02-01T02:20:58.719Z,5.42
2023-02-01T02:23:44.658Z,5.45
2023-02-01T02:26:25.079Z,5.46
2023-02-01T02:28:58.398Z,5.45
2023-02-01T02:31:24.199Z,5.46
2023-02-01T02:33:49.128Z,5.46
2023-02-01T02:36:00.781Z,5.45
2023-02-01T02:38:14.325Z,5.44
2023-02-01T02:40:20.734Z,5.46
2023-02-01T02:42:30.724Z,5.45
2023-02-01T02:44:40.385Z,5.45
2023-02-01T02:46:49.433Z,5.46
2023-02-01T02:49:02.195Z,5.44
2023-02-01T02:51:10.907Z,5.42
2023-02-01T02:53:16.261Z,5.45
2023-02-01T02:55:19.053Z,5.44
2023-02-01T02:57:31.623Z,5.43
2023-02-01T02:59:36.647Z,5.40
2023-02-01T03:01:40.884Z,5.37
2023-02-01T03:03:44.880Z,5.38
2023-02-01T03:05:50.054Z,5.36
2023-02-01T03:08:01.939Z,5.34
2023-02-01T03:10:11.496Z,5.33
2023-02-01T03:12:16.357Z,5.30
2023-02-01T03:14:23.512Z,5.29
2023-02-01T03:16:28.968Z,5.28
2023-02-01T03:18:37.028Z,5.28
2023-02-01T03:20:45.572Z,5.25
2023-02-01T03:22:51.764Z,5.25
2023-02-01T03:24:56.265Z,5.21
2023-02-01T03:27:04.147Z,5.21
2023-02-01T03:29:10.167Z,5.20
2023-02-01T03:31:12.037Z,5.19
2023-02-01T03:33:19.069Z,5.18
2023-02-01T03:35:27.732Z,5.19
2023-02-01T03:37:29.940Z,5.15
2023-02-01T03:39:37.536Z,5.14
2023-02-01T03:41:43.236Z,5.12
2023-02-01T03:43:54.524Z,5.11
2023-02-01T03:46:01.370Z,5.07
2023-02-01T03:48:04.966Z,5.08
2023-02-01T03:50:09.497Z,5.06
2023-02-01T03:52:16.035Z,5.06
2023-02-01T03:54:20.130Z,5.05
2023-02-01T03:56:28.585Z,5.04
2023-02-01T03:58:30.371Z,5.04
2023-02-01T04:00:32.002Z,5.01
2023-02-01T04:02:34.284Z,5.00
2023-02-01T04:04:36.395Z,5.01
2023-02-01T04:06:38.557Z,4.97
2023-02-01T04:08:42.039Z,4.99
2023-02-01T04:10:43.991Z,4.96
2023-02-01T04:12:47.212Z,4.96
2023-02-01T04:14:48.786Z,4.96
2023-02-01T04:16:51.248Z,4.94
2023-02-01T04:18:56.229Z,4.91
2023-02-01T04:20:57.816Z,4.89
2023-02-01T04:22:59.577Z,4.90
2023-02-01T04:25:01.860Z,4.89
2023-02-01T04:27:03.871Z,4.87
2023-02-01T04:29:07.705Z,4.87
2023-02-01T04:31:09.559Z,4.87
2023-02-01T04:33:11.351Z,4.87
2023-02-01T04:35:12.940Z,4.86
2023-02-01T04:37:14.731Z,4.87
2023-02-01T04:39:16.722Z,4.85
2023-02-01T04:41:19.028Z,4.86
2023-02-01T04:43:20.727Z,4.87
2023-02-01T04:45:23.989Z,4.85
2023-02-01T04:47:25.708Z,4.85
2023-02-01T04:49:27.563Z,4.85
2023-02-01T04:51:29.604Z,4.84
2023-02-01T04:53:31.439Z,4.82
2023-02-01T04:55:33.252Z,4.83
2023-02-01T04:57:35.088Z,4.80
2023-02-01T04:59:36.848Z,4.80
2023-02-01T05:01:41.438Z,4.79
2023-02-01T05:03:43.403Z,4.80
2023-02-01T05:05:45.252Z,4.78
2023-02-01T05:07:47.512Z,4.78
2023-02-01T05:09:49.096Z,4.77
2023-02-01T05:11:50.876Z,4.78
2023-02-01T05:13:52.472Z,4.77
2023-02-01T05:15:54.079Z,4.77
2023-02-01T05:18:00.087Z,4.77
2023-02-01T05:20:01.916Z,4.76
2023-02-01T05:22:03.923Z,4.75
2023-02-01T05:24:06.500Z,4.75
2023-02-01T05:26:08.302Z,4.75
2023-02-01T05:28:10.592Z,4.74
2023-02-01T05:30:13.140Z,4.73
2023-02-01T05:32:22.257Z,4.73
2023-02-01T05:34:26.175Z,4.72
2023-02-01T05:36:28.344Z,4.71
2023-02-01T05:38:32.324Z,4.70
2023-02-01T05:40:34.219Z,4.71
2023-02-01T05:42:36.593Z,4.70
2023-02-01T05:44:38.254Z,4.70
2023-02-01T05:46:40.132Z,4.69
2023-02-01T05:48:42.938Z,4.67
2023-02-01T05:50:47.955Z,4.68
2023-02-01T05:52:50.762Z,4.68
2023-02-01T05:54:52.327Z,4.66
2023-02-01T05:56:54.188Z,4.67
2023-02-01T05:58:56.040Z,4.67
2023-02-01T06:01:01.906Z,4.67
2023-02-01T06:03:04.225Z,4.68
2023-02-01T06:05:07.133Z,4.68
2023-02-01T06:07:10.640Z,4.69
2023-02-01T06:09:12.274Z,4.70
2023-02-01T06:11:30.619Z,4.72
2023-02-01T06:13:34.994Z,4.73
2023-02-01T06:15:36.635Z,4.74
2023-02-01T06:17:38.879Z,4.76
2023-02-01T06:19:40.868Z,4.77
2023-02-01T06:21:42.924Z,4.77
2023-02-01T06:23:46.395Z,4.79
2023-02-01T06:25:48.016Z,4.78
2023-02-01T06:27:49.761Z,4.80
2023-02-01T06:29:51.521Z,4.81
2023-02-01T06:31:53.224Z,4.81
2023-02-01T06:33:55.125Z,4.82
2023-02-01T06:36:01.788Z,4.83
2023-02-01T06:38:04.614Z,4.83
2023-02-01T06:40:09.480Z,4.85
2023-02-01T06:42:11.307Z,4.85
2023-02-01T06:44:12.933Z,4.85
2023-02-01T06:46:15.231Z,4.85
2023-02-01T06:48:17.141Z,4.84
2023-02-01T06:50:18.712Z,4.85
2023-02-01T06:52:20.639Z,4.86
2023-02-01T06:54:22.412Z,4.86
2023-02-01T06:56:27.293Z,4.87
2023-02-01T06:58:30.742Z,4.87
2023-02-01T07:00:32.430Z,4.85
2023-02-01T07:02:34.656Z,4.88
2023-02-01T07:04:36.487Z,4.90
2023-02-01T07:06:38.338Z,4.91
2023-02-01T07:08:40.563Z,4.91
2023-02-01T07:10:42.730Z,4.90
2023-02-01T07:12:46.331Z,4.92
2023-02-01T07:14:48.043Z,4.94
2023-02-01T07:16:49.972Z,4.93
2023-02-01T07:18:52.786Z,4.96
2023-02-01T07:20:59.451Z,4.95
2023-02-01T07:23:01.451Z,4.96
2023-02-01T07:25:05.721Z,4.96
2023-02-01T07:27:08.882Z,4.98
2023-02-01T07:29:13.125Z,4.99
2023-02-01T07:31:16.696Z,5.00
2023-02-01T07:33:21.512Z,5.03
2023-02-01T07:35:24.140Z,5.03
2023-02-01T07:37:26.016Z,5.04
2023-02-01T07:39:29.909Z,5.06
2023-02-01T07:41:31.738Z,5.05
2023-02-01T07:43:33.900Z,5.05
2023-02-01T07:45:38.018Z,5.09
2023-02-01T07:47:39.649Z,5.11
2023-02-01T07:49:41.284Z,5.12
2023-02-01T07:51:42.820Z,5.13
2023-02-01T07:53:46.212Z,5.14
2023-02-01T07:55:48.001Z,5.15
2023-02-01T07:57:49.847Z,5.17
2023-02-01T07:59:51.636Z,5.17
2023-02-01T08:01:54.810Z,5.19
2023-02-01T08:03:57.855Z,5.19
2023-02-01T08:05:59.543Z,5.20
2023-02-01T08:08:01.355Z,5.21
2023-02-01T08:10:03.256Z,5.21
2023-02-01T08:12:05.844Z,5.22
2023-02-01T08:14:07.455Z,5.22
2023-02-01T08:16:10.948Z,5.22
2023-02-01T08:18:14.162Z,5.23
2023-02-01T08:20:16.373Z,5.24
2023-02-01T08:22:18.195Z,5.22
2023-02-01T08:24:20.002Z,5.21
2023-02-01T08:26:24.447Z,5.21
2023-02-01T08:28:27.653Z,5.20
2023-02-01T08:30:29.679Z,5.21
2023-02-01T08:32:31.829Z,5.19
2023-02-01T08:34:35.923Z,5.21
2023-02-01T08:36:39.154Z,5.21
2023-02-01T08:38:41.655Z,5.21
2023-02-01T08:40:43.467Z,5.21
2023-02-01T08:42:45.042Z,5.21
2023-02-01T08:44:46.704Z,5.23
2023-02-01T08:46:48.629Z,5.24
2023-02-01T08:48:51.395Z,5.23
2023-02-01T08:50:54.782Z,5.24
2023-02-01T08:52:56.629Z,5.22
2023-02-01T08:54:59.732Z,5.24
2023-02-01T08:57:02.749Z,5.23
2023-02-01T08:59:04.479Z,5.22
2023-02-01T09:01:07.761Z,5.21
2023-02-01T09:03:12.707Z,5.22
2023-02-01T09:05:15.795Z,5.17
2023-02-01T09:07:19.225Z,5.18
2023-02-01T09:09:21.802Z,5.17
2023-02-01T09:11:23.747Z,5.18
2023-02-01T09:13:26.025Z,5.16
2023-02-01T09:15:28.665Z,5.16
2023-02-01T09:17:31.076Z,5.16
2023-02-01T09:19:33.431Z,5.13
2023-02-01T09:21:35.161Z,5.14
2023-02-01T09:23:38.407Z,5.12
2023-02-01T09:25:40.117Z,5.10
2023-02-01T09:27:41.747Z,5.08
2023-02-01T09:29:43.294Z,5.03
2023-02-01T09:31:57.495Z,5.00
2023-02-01T09:34:05.228Z,4.94
2023-02-01T09:36:07.557Z,4.91
2023-02-01T09:38:09.171Z,4.88
2023-02-01T09:40:15.180Z,4.85
2023-02-01T09:42:30.332Z,4.81
2023-02-01T09:44:48.687Z,4.78
2023-02-01T09:46:51.289Z,4.75
2023-02-01T09:48:55.409Z,4.74
2023-02-01T09:50:59.065Z,4.71
2023-02-01T09:53:05.525Z,4.70
2023-02-01T09:55:15.268Z,4.67
2023-02-01T09:57:25.667Z,4.69
2023-02-01T09:59:39.247Z,4.68
2023-02-01T10:01:40.998Z,4.68
2023-02-01T10:03:42.723Z,4.66
2023-02-01T10:06:15.436Z,4.70
2023-02-01T10:08:26.132Z,4.71
2023-02-01T10:10:36.495Z,4.73
2023-02-01T10:13:02.938Z,4.78
2023-02-01T10:15:20.479Z,4.79
2023-02-01T10:17:37.611Z,4.80
2023-02-01T10:19:51.209Z,4.82
2023-02-01T10:21:59.588Z,4.85
2023-02-01T10:24:18.973Z,4.96
2023-02-01T10:26:23.726Z,5.00
2023-02-01T10:28:27.137Z,4.98
2023-02-01T10:30:36.406Z,4.96
2023-02-01T10:32:40.370Z,4.96
2023-02-01T10:34:45.443Z,4.97
2023-02-01T10:36:54.847Z,4.98
2023-02-01T10:38:58.619Z,4.99
2023-02-01T10:41:06.703Z,5.01
2023-02-01T10:43:12.495Z,5.02
2023-02-01T10:45:20.075Z,5.01
2023-02-01T10:47:21.842Z,5.02
2023-02-01T10:49:27.631Z,5.03
2023-02-01T10:51:39.492Z,5.03
2023-02-01T10:53:45.074Z,5.04
2023-02-01T10:55:50.979Z,5.08
2023-02-01T10:57:58.332Z,5.07
2023-02-01T11:00:04.614Z,5.07
2023-02-01T11:02:26.083Z,5.09
2023-02-01T11:04:29.394Z,5.08
2023-02-01T11:06:33.909Z,5.07
2023-02-01T11:08:44.837Z,5.07
2023-02-01T11:10:46.926Z,5.06
2023-02-01T11:12:54.912Z,5.08
2023-02-01T11:15:04.333Z,5.09
2023-02-01T11:17:28.398Z,5.09
2023-02-01T11:19:30.437Z,5.10
2023-02-01T11:23:49.024Z,5.14
2023-02-01T11:25:54.040Z,5.15
2023-02-01T11:27:58.110Z,5.14
2023-02-01T11:30:03.327Z,5.17
2023-02-01T11:32:05.784Z,5.16
2023-02-01T11:37:31.788Z,5.16
2023-02-01T11:39:35.831Z,5.12
2023-02-01T11:41:43.389Z,5.13
2023-02-01T11:43:54.053Z,5.09
2023-02-01T11:45:58.780Z,5.08
2023-02-01T11:48:00.747Z,5.07
2023-02-01T11:50:07.021Z,5.07
2023-02-01T11:52:17.237Z,5.08
2023-02-01T11:54:42.571Z,5.14
2023-02-01T11:56:58.633Z,5.16
2023-02-01T11:59:23.738Z,5.19
2023-02-01T12:01:50.413Z,5.30
2023-02-01T12:04:24.849Z,5.37
2023-02-01T12:06:33.151Z,5.48
2023-02-01T12:08:59.220Z,5.53
2023-02-01T12:11:26.241Z,5.58
2023-02-01T12:13:43.513Z,5.68
2023-02-01T12:16:01.270Z,5.73
2023-02-01T12:18:35.346Z,5.84
2023-02-01T12:21:11.749Z,5.93
2023-02-01T12:23:28.290Z,5.98
2023-02-01T12:25:42.521Z,6.03
2023-02-01T12:28:08.355Z,6.08
2023-02-01T12:30:33.578Z,6.15
2023-02-01T12:32:55.450Z,6.21
2023-02-01T12:35:13.627Z,6.26
2023-02-01T12:37:30.233Z,6.31
2023-02-01T12:39:36.598Z,6.36
2023-02-01T12:41:52.297Z,6.35
2023-02-01T12:44:00.286Z,6.32
2023-02-01T12:46:07.020Z,6.28
2023-02-01T12:48:26.769Z,6.20
2023-02-01T12:50:32.834Z,6.13
2023-02-01T12:52:43.566Z,6.07
2023-02-01T12:54:50.405Z,6.05
2023-02-01T12:57:04.768Z,5.99
2023-02-01T12:59:20.552Z,5.95
2023-02-01T13:01:27.537Z,5.90
2023-02-01T13:03:38.494Z,5.85
2023-02-01T13:05:51.057Z,5.80
2023-02-01T13:08:01.223Z,5.79
2023-02-01T13:10:09.361Z,5.75
2023-02-01T13:12:16.567Z,5.71
2023-02-01T13:14:28.024Z,5.70
2023-02-01T13:16:33.483Z,5.67
2023-02-01T13:18:38.918Z,5.64
2023-02-01T13:20:51.734Z,5.61
2023-02-01T13:22:58.998Z,5.61
2023-02-01T13:25:04.557Z,5.59
2023-02-01T13:27:06.894Z,5.56
2023-02-01T13:29:12.272Z,5.57
2023-02-01T13:31:45.824Z,5.59
2023-02-01T13:34:01.173Z,5.55
2023-02-01T13:36:28.631Z,5.57
2023-02-01T13:39:06.211Z,5.56
2023-02-01T13:41:25.756Z,5.57
2023-02-01T13:43:29.864Z,5.55
2023-02-01T13:45:34.347Z,5.54
2023-02-01T13:47:43.185Z,5.56
2023-02-01T13:49:45.594Z,5.56
2023-02-01T13:51:53.463Z,5.56
2023-02-01T13:53:57.586Z,5.59
2023-02-01T13:56:02.572Z,5.59
2023-02-01T13:58:18.048Z,5.61
2023-02-01T14:00:37.239Z,5.62
2023-02-01T14:03:08.872Z,5.65
2023-02-01T14:05:12.313Z,5.63
2023-02-01T14:07:22.547Z,5.65
2023-02-01T14:09:35.371Z,5.66
2023-02-01T14:11:40.491Z,5.66
2023-02-01T14:13:43.169Z,5.65
2023-02-01T14:16:09.502Z,5.68
2023-02-01T14:18:41.019Z,5.71
2023-02-01T14:20:46.020Z,5.69
2023-02-01T14:22:48.612Z,5.69
2023-02-01T14:24:52.513Z,5.71
2023-02-01T14:26:55.913Z,5.71
2023-02-01T14:29:02.148Z,5.71
2023-02-01T14:31:16.574Z,5.73
2023-02-01T14:33:22.094Z,5.72
2023-02-01T14:35:28.645Z,5.70
2023-02-01T14:37:38.070Z,5.65
2023-02-01T14:39:56.524Z,5.63
2023-02-01T14:42:02.887Z,5.57
2023-02-01T14:44:24.109Z,5.52
2023-02-01T14:47:00.946Z,5.47
2023-02-01T14:49:02.879Z,5.39
2023-02-01T14:51:07.085Z,5.34
2023-02-01T14:53:29.778Z,5.30
2023-02-01T14:55:38.525Z,5.22
2023-02-01T14:57:43.761Z,5.18
2023-02-01T14:59:47.475Z,5.14
2023-02-01T15:01:54.630Z,5.10
2023-02-01T15:04:02.290Z,5.06
2023-02-01T15:06:04.583Z,5.03
2023-02-01T15:08:16.281Z,5.01
2023-02-01T15:10:22.663Z,4.96
2023-02-01T15:12:26.325Z,4.90
2023-02-01T15:14:29.763Z,4.87
2023-02-01T15:16:31.471Z,4.84
2023-02-01T15:18:33.567Z,4.81
2023-02-01T15:20:36.615Z,4.76
2023-02-01T15:22:40.466Z,4.70
2023-02-01T15:24:42.401Z,4.69
2023-02-01T15:26:45.749Z,4.66
2023-02-01T15:28:47.426Z,4.62
2023-02-01T15:30:58.427Z,4.61
2023-02-01T15:33:08.469Z,4.56
2023-02-01T15:35:35.315Z,4.53
2023-02-01T15:37:37.567Z,4.47
2023-02-01T15:40:07.039Z,4.45
2023-02-01T15:42:18.154Z,4.41
2023-02-01T15:44:28.918Z,4.36
2023-02-01T15:46:34.558Z,4.33
2023-02-01T15:48:40.304Z,4.30
2023-02-01T15:50:42.129Z,4.28
2023-02-01T15:52:43.950Z,4.25
2023-02-01T15:54:51.495Z,4.22
2023-02-01T15:56:57.404Z,4.19
2023-02-01T15:59:03.474Z,4.16
2023-02-01T16:01:07.127Z,4.13
2023-02-01T16:03:27.554Z,4.11
2023-02-01T16:05:34.871Z,4.08
2023-02-01T16:07:36.707Z,4.04
2023-02-01T16:09:40.537Z,4.03
2023-02-01T16:11:49.177Z,4.02
2023-02-01T16:13:51.011Z,4.00
2023-02-01T16:15:54.473Z,4.00
2023-02-01T16:17:56.152Z,3.98
2023-02-01T16:19:57.971Z,3.98
2023-02-01T16:21:59.537Z,3.97
2023-02-01T16:24:01.691Z,3.97
2023-02-01T16:26:07.016Z,3.95
2023-02-01T16:28:08.780Z,3.95
2023-02-01T16:30:11.458Z,3.96
2023-02-01T16:32:19.697Z,3.95
2023-02-01T16:34:21.454Z,3.93
2023-02-01T16:36:23.608Z,3.92
2023-02-01T16:38:25.319Z,3.93
2023-02-01T16:40:28.620Z,3.92
2023-02-01T16:42:30.184Z,3.91
2023-02-01T16:44:32.293Z,3.91
2023-02-01T16:46:40.335Z,3.91
2023-02-01T16:48:48.120Z,3.91
2023-02-01T16:50:53.678Z,3.91
2023-02-01T16:52:55.319Z,3.90
2023-02-01T16:54:56.974Z,3.91
2023-02-01T16:56:58.796Z,3.90
2023-02-01T16:59:03.094Z,3.92
2023-02-01T17:01:06.161Z,3.92
2023-02-01T17:03:10.455Z,3.95
2023-02-01T17:05:13.998Z,3.97
2023-02-01T17:07:19.128Z,3.97
2023-02-01T17:09:21.257Z,3.97
2023-02-01T17:11:23.292Z,4.00
2023-02-01T17:13:25.198Z,3.98
2023-02-01T17:15:30.574Z,4.02
2023-02-01T17:17:39.242Z,4.02
2023-02-01T17:19:43.004Z,4.03
2023-02-01T17:21:48.170Z,4.03
2023-02-01T17:23:52.627Z,4.05
2023-02-01T17:25:54.420Z,4.07
2023-02-01T17:27:56.011Z,4.06
2023-02-01T17:29:57.651Z,4.07
2023-02-01T17:31:59.494Z,4.09
2023-02-01T17:34:01.075Z,4.11
2023-02-01T17:36:04.643Z,4.15
2023-02-01T17:38:12.199Z,4.16
2023-02-01T17:40:14.292Z,4.17
2023-02-01T17:42:16.239Z,4.20
2023-02-01T17:44:17.885Z,4.21
2023-02-01T17:46:20.095Z,4.23
2023-02-01T17:48:23.258Z,4.24
2023-02-01T17:50:28.438Z,4.27
2023-02-01T17:52:30.572Z,4.26
2023-02-01T17:54:36.482Z,4.30
2023-02-01T17:56:42.360Z,4.31
2023-02-01T17:58:44.916Z,4.31
2023-02-01T18:00:48.120Z,4.33
2023-02-01T18:02:50.718Z,4.33
2023-02-01T18:04:52.515Z,4.36
2023-02-01T18:06:54.168Z,4.36
2023-02-01T18:08:55.915Z,4.37
2023-02-01T18:11:01.041Z,4.36
2023-02-01T18:13:02.729Z,4.37
2023-02-01T18:15:16.623Z,4.38
2023-02-01T18:17:18.310Z,4.38
2023-02-01T18:19:20.406Z,4.38
2023-02-01T18:21:24.559Z,4.38
2023-02-01T18:23:26.205Z,4.38
2023-02-01T18:25:29.936Z,4.39
2023-02-01T18:27:33.329Z,4.38
2023-02-01T18:29:36.189Z,4.41
2023-02-01T18:31:45.192Z,4.43
2023-02-01T18:33:47.128Z,4.43
2023-02-01T18:35:49.528Z,4.46
2023-02-01T18:37:52.727Z,4.47
2023-02-01T18:39:54.477Z,4.48
2023-02-01T18:41:56.260Z,4.52
2023-02-01T18:44:02.552Z,4.53
2023-02-01T18:46:05.633Z,4.54
2023-02-01T18:48:09.266Z,4.57
2023-02-01T18:50:10.917Z,4.59
2023-02-01T18:52:18.911Z,4.61
2023-02-01T18:54:20.561Z,4.64
2023-02-01T18:56:22.432Z,4.66
2023-02-01T18:58:25.202Z,4.67
2023-02-01T19:00:29.010Z,4.70
2023-02-01T19:02:30.824Z,4.72
2023-02-01T19:04:32.620Z,4.75
2023-02-01T19:06:34.436Z,4.77
2023-02-01T19:08:36.540Z,4.80
2023-02-01T19:10:40.981Z,4.83
2023-02-01T19:12:43.206Z,4.84
2023-02-01T19:14:47.384Z,4.86
2023-02-01T19:16:51.597Z,4.87
2023-02-01T19:18:54.583Z,4.90
2023-02-01T19:21:03.423Z,4.91
2023-02-01T19:23:05.023Z,4.94
2023-02-01T19:25:07.606Z,4.94
2023-02-01T19:27:09.482Z,4.97
2023-02-01T19:29:11.494Z,4.97
2023-02-01T19:31:13.705Z,5.00
2023-02-01T19:33:17.890Z,5.01
2023-02-01T19:35:21.552Z,5.01
2023-02-01T19:37:25.202Z,5.04
2023-02-01T19:39:27.062Z,5.06
2023-02-01T19:41:28.624Z,5.06
2023-02-01T19:43:30.277Z,5.09
2023-02-01T19:45:31.883Z,5.09
2023-02-01T19:47:34.129Z,5.09
2023-02-01T19:49:37.644Z,5.11
2023-02-01T19:51:39.932Z,5.13
2023-02-01T19:53:41.543Z,5.15
2023-02-01T19:55:45.775Z,5.16
2023-02-01T19:57:47.448Z,5.18
2023-02-01T19:59:49.761Z,5.20
2023-02-01T20:01:50.976Z,5.19
2023-02-01T20:03:52.732Z,5.21
2023-02-01T20:05:57.509Z,5.22
2023-02-01T20:07:59.053Z,5.21
2023-02-01T20:10:00.860Z,5.22
2023-02-01T20:12:02.958Z,5.24
2023-02-01T20:14:05.376Z,5.23
2023-02-01T20:16:07.496Z,5.24
2023-02-01T20:18:09.621Z,5.26
2023-02-01T20:20:11.931Z,5.26
2023-02-01T20:22:15.336Z,5.27
2023-02-01T20:24:18.215Z,5.29
2023-02-01T20:26:21.135Z,5.27
2023-02-01T20:28:22.668Z,5.31
2023-02-01T20:30:24.701Z,5.33
2023-02-01T20:32:26.368Z,5.34
2023-02-01T20:34:27.980Z,5.34
2023-02-01T20:36:31.303Z,5.34
2023-02-01T20:38:34.914Z,5.36
2023-02-01T20:40:37.710Z,5.37
2023-02-01T20:42:39.470Z,5.38
2023-02-01T20:44:41.456Z,5.39
2023-02-01T20:46:43.515Z,5.40
2023-02-01T20:48:47.348Z,5.41
2023-02-01T20:50:53.104Z,5.42
2023-02-01T20:52:55.097Z,5.42
2023-02-01T20:54:58.941Z,5.42
2023-02-01T20:57:01.031Z,5.43
2023-02-01T20:59:02.677Z,5.43
2023-02-01T21:01:05.461Z,5.44
2023-02-01T21:03:07.910Z,5.47
2023-02-01T21:05:10.574Z,5.47
2023-02-01T21:07:12.248Z,5.48
2023-02-01T21:09:14.095Z,5.47
2023-02-01T21:11:17.344Z,5.49
2023-02-01T21:13:20.346Z,5.51
2023-02-01T21:15:22.753Z,5.51
2023-02-01T21:17:24.641Z,5.53
2023-02-01T21:19:26.570Z,5.53
2023-02-01T21:21:28.134Z,5.55
2023-02-01T21:23:30.486Z,5.56
2023-02-01T21:25:32.773Z,5.59
2023-02-01T21:27:36.250Z,5.59
2023-02-01T21:29:38.436Z,5.60
2023-02-01T21:31:41.405Z,5.62
2023-02-01T21:33:43.161Z,5.62
2023-02-01T21:35:47.024Z,5.64
2023-02-01T21:37:48.620Z,5.64
2023-02-01T21:39:50.654Z,5.63
2023-02-01T21:41:52.492Z,5.65
2023-02-01T21:43:55.589Z,5.65
2023-02-01T21:45:57.153Z,5.66
2023-02-01T21:47:58.837Z,5.69
2023-02-01T21:50:00.733Z,5.70
2023-02-01T21:52:04.033Z,5.71
2023-02-01T21:54:06.642Z,5.70
2023-02-01T21:56:08.460Z,5.70
2023-02-01T21:58:10.220Z,5.70
2023-02-01T22:00:18.294Z,5.74
2023-02-01T22:02:20.340Z,5.73
2023-02-01T22:04:23.366Z,5.73
2023-02-01T22:06:26.156Z,5.75
2023-02-01T22:08:28.170Z,5.74
2023-02-01T22:10:30.378Z,5.74
2023-02-01T22:12:32.282Z,5.74
2023-02-01T22:14:34.405Z,5.75
2023-02-01T22:16:37.534Z,5.73
2023-02-01T22:18:39.600Z,5.75
2023-02-01T22:20:41.385Z,5.73
2023-02-01T22:22:43.162Z,5.72
2023-02-01T22:24:45.238Z,5.70
2023-02-01T22:26:48.113Z,5.68
2023-02-01T22:28:50.055Z,5.66
2023-02-01T22:30:51.777Z,5.63
2023-02-01T22:32:54.893Z,5.61
2023-02-01T22:34:56.534Z,5.60
2023-02-01T22:36:58.399Z,5.59
2023-02-01T22:39:01.996Z,5.54
2023-02-01T22:41:06.108Z,5.54
2023-02-01T22:43:08.203Z,5.52
2023-02-01T22:45:10.711Z,5.50
2023-02-01T22:47:15.647Z,5.47
2023-02-01T22:49:18.626Z,5.47
2023-02-01T22:51:23.376Z,5.46
2023-02-01T22:53:26.887Z,5.42
2023-02-01T22:55:28.484Z,5.40
2023-02-01T22:57:30.190Z,5.38
2023-02-01T22:59:32.093Z,5.35
2023-02-01T23:01:34.913Z,5.35
2023-02-01T23:03:37.195Z,5.34
2023-02-01T23:05:41.314Z,5.32
2023-02-01T23:07:43.227Z,5.31
2023-02-01T23:09:45.219Z,5.29
2023-02-01T23:11:47.303Z,5.27
2023-02-01T23:13:49.291Z,5.26
2023-02-01T23:15:51.340Z,5.27
2023-02-01T23:17:54.931Z,5.23
2023-02-01T23:19:56.894Z,5.23
2023-02-01T23:21:59.916Z,5.23
2023-02-01T23:24:02.843Z,5.21
2023-02-01T23:26:06.245Z,5.23
2023-02-01T23:28:09.236Z,5.25
2023-02-01T23:30:12.220Z,5.26
2023-02-01T23:32:13.848Z,5.26
2023-02-01T23:34:18.324Z,5.29
2023-02-01T23:36:20.946Z,5.29
2023-02-01T23:38:24.745Z,5.30
2023-02-01T23:40:26.709Z,5.33
2023-02-01T23:42:28.324Z,5.32
2023-02-01T23:44:30.003Z,5.33
2023-02-01T23:46:34.324Z,5.35
2023-02-01T23:48:36.118Z,5.34
2023-02-01T23:50:37.925Z,5.35
2023-02-01T23:52:39.687Z,5.36
2023-02-01T23:54:46.924Z,5.36
2023-02-01T23:56:50.642Z,5.36
2023-02-01T23:58:54.399Z,5.35
